createdAt,value
2018-10-16T00:00:08.388Z,1004.34
2018-10-16T00:01:08.383Z,1004.38
2018-10-16T00:02:08.373Z,1004.33
2018-10-16T00:03:08.455Z,1004.34
2018-10-16T00:04:08.341Z,1004.31
2018-10-16T00:05:08.330Z,1004.34
2018-10-16T00:06:08.322Z,1004.31
2018-10-16T00:07:08.320Z,1004.31
2018-10-16T00:08:08.327Z,1004.35
2018-10-16T00:09:08.285Z,1004.35
2018-10-16T00:10:08.279Z,1004.37
2018-10-16T00:11:08.265Z,1004.38
2018-10-16T00:12:08.251Z,1004.38
2018-10-16T00:13:08.254Z,1004.42
2018-10-16T00:14:08.234Z,1004.43
2018-10-16T00:15:08.216Z,1004.39
2018-10-16T00:16:08.206Z,1004.39
2018-10-16T00:17:08.200Z,1004.40
2018-10-16T00:18:08.198Z,1004.41
2018-10-16T00:19:08.174Z,1004.42
2018-10-16T00:20:08.162Z,1004.40
2018-10-16T00:21:08.154Z,1004.39
2018-10-16T00:22:08.137Z,1004.38
2018-10-16T00:23:08.145Z,1004.45
2018-10-16T00:24:08.116Z,1004.48
2018-10-16T00:25:08.106Z,1004.43
2018-10-16T00:26:08.102Z,1004.48
2018-10-16T00:27:08.105Z,1004.42
2018-10-16T00:28:08.082Z,1004.50
2018-10-16T00:29:08.061Z,1004.47
2018-10-16T00:30:08.058Z,1004.47
2018-10-16T00:31:08.037Z,1004.47
2018-10-16T00:32:08.045Z,1004.47
2018-10-16T00:33:08.023Z,1004.52
2018-10-16T00:34:08.013Z,1004.52
2018-10-16T00:35:07.990Z,1004.47
2018-10-16T00:36:07.982Z,1004.47
2018-10-16T00:37:07.982Z,1004.47
2018-10-16T00:38:07.957Z,1004.52
2018-10-16T00:39:07.957Z,1004.49
2018-10-16T00:40:07.935Z,1004.49
2018-10-16T00:41:07.925Z,1004.51
2018-10-16T00:42:07.916Z,1004.51
2018-10-16T00:43:07.900Z,1004.49
2018-10-16T00:44:07.904Z,1004.48
2018-10-16T00:45:07.879Z,1004.52
2018-10-16T00:46:07.872Z,1004.53
2018-10-16T00:47:07.854Z,1004.53
2018-10-16T00:48:07.847Z,1004.53
2018-10-16T00:49:07.845Z,1004.56
2018-10-16T00:50:07.824Z,1004.56
2018-10-16T00:51:07.809Z,1004.61
2018-10-16T00:52:07.798Z,1004.63
2018-10-16T00:53:07.789Z,1004.64
2018-10-16T00:54:07.785Z,1004.67
2018-10-16T00:55:07.778Z,1004.66
2018-10-16T00:56:07.752Z,1004.70
2018-10-16T00:57:07.745Z,1004.70
2018-10-16T00:58:07.729Z,1004.71
2018-10-16T00:59:07.743Z,1004.70
2018-10-16T01:00:07.712Z,1004.75
2018-10-16T01:02:16.419Z,1004.73
2018-10-16T01:03:16.406Z,1004.70
2018-10-16T01:04:16.408Z,1004.71
2018-10-16T01:05:16.384Z,1004.70
2018-10-16T01:06:16.375Z,1004.77
2018-10-16T01:07:16.370Z,1004.67
2018-10-16T01:08:16.406Z,1004.74
2018-10-16T01:09:16.354Z,1004.72
2018-10-16T01:10:16.326Z,1004.81
2018-10-16T01:11:16.318Z,1004.74
2018-10-16T01:12:16.313Z,1004.72
2018-10-16T01:13:16.324Z,1004.76
2018-10-16T01:14:16.299Z,1004.77
2018-10-16T01:15:16.272Z,1004.75
2018-10-16T01:16:16.261Z,1004.79
2018-10-16T01:17:16.249Z,1004.82
2018-10-16T01:18:16.248Z,1004.87
2018-10-16T01:19:16.250Z,1004.87
2018-10-16T01:20:16.238Z,1004.92
2018-10-16T01:21:16.207Z,1004.85
2018-10-16T01:22:16.204Z,1004.88
2018-10-16T01:23:16.196Z,1004.84
2018-10-16T01:24:16.181Z,1004.86
2018-10-16T01:25:16.163Z,1004.87
2018-10-16T01:26:16.148Z,1004.90
2018-10-16T01:27:16.136Z,1004.84
2018-10-16T01:28:16.134Z,1004.89
2018-10-16T01:29:16.149Z,1004.84
2018-10-16T01:30:16.129Z,1004.86
2018-10-16T01:31:16.109Z,1004.88
2018-10-16T01:33:26.553Z,1004.94
2018-10-16T01:34:25.322Z,1004.96
2018-10-16T01:35:25.277Z,1004.96
2018-10-16T01:36:25.271Z,1004.98
2018-10-16T01:37:25.249Z,1004.99
2018-10-16T01:38:25.244Z,1004.96
2018-10-16T01:39:25.240Z,1004.96
2018-10-16T01:40:25.217Z,1004.96
2018-10-16T01:41:25.205Z,1004.97
2018-10-16T01:42:25.194Z,1004.99
2018-10-16T01:43:25.184Z,1005.00
2018-10-16T01:44:25.185Z,1004.99
2018-10-16T01:45:25.165Z,1004.94
2018-10-16T01:46:25.149Z,1005.00
2018-10-16T01:47:25.139Z,1004.94
2018-10-16T01:48:25.126Z,1004.96
2018-10-16T01:49:25.131Z,1004.98
2018-10-16T01:50:25.105Z,1004.93
2018-10-16T01:51:25.092Z,1004.95
2018-10-16T01:52:25.087Z,1004.94
2018-10-16T01:53:25.068Z,1004.92
2018-10-16T01:54:25.083Z,1004.92
2018-10-16T01:55:25.047Z,1004.91
2018-10-16T01:56:25.037Z,1004.91
2018-10-16T01:57:25.025Z,1004.94
2018-10-16T01:58:25.011Z,1004.96
2018-10-16T01:59:25.014Z,1004.95
2018-10-16T02:00:25.001Z,1004.96
2018-10-16T02:01:24.978Z,1004.95
2018-10-16T02:02:24.971Z,1004.93
2018-10-16T02:03:24.956Z,1004.99
2018-10-16T02:04:24.948Z,1005.00
2018-10-16T02:05:24.946Z,1004.99
2018-10-16T02:06:24.924Z,1005.01
2018-10-16T02:07:24.925Z,1005.01
2018-10-16T02:08:24.901Z,1004.99
2018-10-16T02:09:24.889Z,1005.02
2018-10-16T02:10:24.897Z,1005.04
2018-10-16T02:11:24.864Z,1005.01
2018-10-16T02:12:24.857Z,1005.02
2018-10-16T02:13:24.841Z,1005.03
2018-10-16T02:14:24.829Z,1005.03
2018-10-16T02:15:24.835Z,1005.00
2018-10-16T02:16:24.808Z,1005.06
2018-10-16T02:17:24.822Z,1005.02
2018-10-16T02:18:24.791Z,1005.05
2018-10-16T02:19:24.774Z,1005.07
2018-10-16T02:20:24.790Z,1005.07
2018-10-16T02:21:24.756Z,1005.10
2018-10-16T02:22:24.740Z,1005.12
2018-10-16T02:23:24.730Z,1005.09
2018-10-16T02:24:24.722Z,1005.09
2018-10-16T02:25:24.710Z,1005.10
2018-10-16T02:26:24.714Z,1005.09
2018-10-16T02:27:24.684Z,1005.10
2018-10-16T02:28:24.685Z,1005.14
2018-10-16T02:29:24.663Z,1005.11
2018-10-16T02:30:24.651Z,1005.12
2018-10-16T02:31:24.657Z,1005.11
2018-10-16T02:32:24.629Z,1005.13
2018-10-16T02:33:24.618Z,1005.11
2018-10-16T02:34:24.608Z,1005.15
2018-10-16T02:35:24.596Z,1005.20
2018-10-16T02:36:24.604Z,1005.17
2018-10-16T02:37:24.573Z,1005.18
2018-10-16T02:38:24.561Z,1005.22
2018-10-16T02:39:24.554Z,1005.21
2018-10-16T02:40:24.539Z,1005.24
2018-10-16T02:41:24.537Z,1005.26
2018-10-16T02:44:42.938Z,1005.25
2018-10-16T02:45:42.943Z,1005.26
2018-10-16T02:46:42.919Z,1005.26
2018-10-16T02:47:42.905Z,1005.24
2018-10-16T02:48:42.894Z,1005.24
2018-10-16T02:49:42.886Z,1005.20
2018-10-16T02:50:42.888Z,1005.21
2018-10-16T02:51:42.862Z,1005.26
2018-10-16T02:52:42.849Z,1005.19
2018-10-16T02:53:42.839Z,1005.17
2018-10-16T02:54:42.829Z,1005.21
2018-10-16T02:55:42.830Z,1005.22
2018-10-16T02:56:42.807Z,1005.26
2018-10-16T02:57:42.795Z,1005.28
2018-10-16T02:58:42.780Z,1005.26
2018-10-16T02:59:42.787Z,1005.29
2018-10-16T03:00:42.773Z,1005.26
2018-10-16T03:01:42.746Z,1005.28
2018-10-16T03:02:42.741Z,1005.30
2018-10-16T03:03:42.727Z,1005.31
2018-10-16T03:04:42.713Z,1005.29
2018-10-16T03:05:42.722Z,1005.29
2018-10-16T03:06:42.698Z,1005.26
2018-10-16T03:07:42.681Z,1005.32
2018-10-16T03:08:42.670Z,1005.28
2018-10-16T03:09:42.666Z,1005.29
2018-10-16T03:10:42.668Z,1005.32
2018-10-16T03:11:42.637Z,1005.32
2018-10-16T03:12:42.640Z,1005.30
2018-10-16T03:13:42.624Z,1005.28
2018-10-16T03:14:42.601Z,1005.28
2018-10-16T03:15:42.589Z,1005.27
2018-10-16T03:16:42.607Z,1005.29
2018-10-16T03:17:42.568Z,1005.29
2018-10-16T03:18:42.555Z,1005.33
2018-10-16T03:19:42.544Z,1005.34
2018-10-16T03:20:42.565Z,1005.27
2018-10-16T03:21:42.533Z,1005.30
2018-10-16T03:22:42.512Z,1005.33
2018-10-16T03:23:42.500Z,1005.28
2018-10-16T03:24:42.492Z,1005.27
2018-10-16T03:25:42.475Z,1005.30
2018-10-16T03:26:42.476Z,1005.34
2018-10-16T03:29:06.412Z,1005.38
2018-10-16T03:29:51.161Z,1005.32
2018-10-16T03:30:51.154Z,1005.33
2018-10-16T03:31:51.152Z,1005.35
2018-10-16T03:32:51.129Z,1005.32
2018-10-16T03:33:51.123Z,1005.32
2018-10-16T03:34:51.105Z,1005.32
2018-10-16T03:35:51.093Z,1005.35
2018-10-16T03:36:51.091Z,1005.31
2018-10-16T03:37:51.072Z,1005.33
2018-10-16T03:38:51.060Z,1005.40
2018-10-16T03:39:51.054Z,1005.41
2018-10-16T03:40:51.036Z,1005.42
2018-10-16T03:41:51.036Z,1005.53
2018-10-16T03:42:51.017Z,1005.53
2018-10-16T03:43:51.004Z,1005.52
2018-10-16T03:44:50.992Z,1005.57
2018-10-16T03:45:51.057Z,1005.54
2018-10-16T03:46:50.976Z,1005.59
2018-10-16T03:47:50.959Z,1005.57
2018-10-16T03:48:50.950Z,1005.61
2018-10-16T03:49:50.932Z,1005.60
2018-10-16T03:50:50.923Z,1005.65
2018-10-16T03:51:50.925Z,1005.61
2018-10-16T03:52:50.897Z,1005.58
2018-10-16T03:53:50.893Z,1005.55
2018-10-16T03:54:50.876Z,1005.57
2018-10-16T03:55:50.873Z,1005.62
2018-10-16T03:56:50.861Z,1005.58
2018-10-16T03:57:50.844Z,1005.61
2018-10-16T03:58:50.830Z,1005.58
2018-10-16T03:59:50.823Z,1005.56
2018-10-16T04:00:50.808Z,1005.62
2018-10-16T04:01:50.806Z,1005.68
2018-10-16T04:02:50.784Z,1005.67
2018-10-16T04:03:50.776Z,1005.71
2018-10-16T04:04:50.770Z,1005.70
2018-10-16T04:05:50.757Z,1005.74
2018-10-16T04:06:50.843Z,1005.73
2018-10-16T04:07:50.732Z,1005.72
2018-10-16T04:08:50.723Z,1005.73
2018-10-16T04:09:50.708Z,1005.75
2018-10-16T04:10:50.716Z,1005.73
2018-10-16T04:11:50.697Z,1005.74
2018-10-16T04:12:50.671Z,1005.75
2018-10-16T04:13:50.685Z,1005.81
2018-10-16T04:14:50.649Z,1005.80
2018-10-16T04:15:50.645Z,1005.79
2018-10-16T04:16:50.641Z,1005.85
2018-10-16T04:17:50.617Z,1005.82
2018-10-16T04:18:50.605Z,1005.81
2018-10-16T04:19:50.600Z,1005.84
2018-10-16T04:20:50.585Z,1005.79
2018-10-16T04:21:50.584Z,1005.81
2018-10-16T04:22:50.592Z,1005.79
2018-10-16T04:23:50.557Z,1005.82
2018-10-16T04:24:50.540Z,1005.79
2018-10-16T04:25:50.528Z,1005.78
2018-10-16T04:26:50.518Z,1005.78
2018-10-16T04:27:50.517Z,1005.83
2018-10-16T04:28:50.513Z,1005.83
2018-10-16T04:29:50.483Z,1005.83
2018-10-16T04:30:50.472Z,1005.86
2018-10-16T04:31:50.465Z,1005.89
2018-10-16T04:32:50.467Z,1005.90
2018-10-16T04:33:50.443Z,1005.88
2018-10-16T04:34:50.429Z,1005.91
2018-10-16T04:35:50.417Z,1005.91
2018-10-16T04:36:50.404Z,1005.95
2018-10-16T04:37:50.405Z,1005.95
2018-10-16T04:38:50.381Z,1005.91
2018-10-16T04:39:50.374Z,1005.93
2018-10-16T04:40:50.361Z,1005.93
2018-10-16T04:41:50.348Z,1005.91
2018-10-16T04:42:50.350Z,1005.96
2018-10-16T04:43:50.435Z,1005.90
2018-10-16T04:44:50.330Z,1005.90
2018-10-16T04:45:50.314Z,1005.89
2018-10-16T04:46:50.291Z,1005.91
2018-10-16T04:47:50.288Z,1005.92
2018-10-16T04:48:50.269Z,1005.97
2018-10-16T04:49:50.274Z,1005.94
2018-10-16T04:50:50.244Z,1005.96
2018-10-16T04:51:50.235Z,1005.94
2018-10-16T04:52:50.233Z,1005.95
2018-10-16T04:53:50.211Z,1005.98
2018-10-16T04:54:50.207Z,1006.00
2018-10-16T04:55:50.192Z,1006.01
2018-10-16T04:56:50.178Z,1005.97
2018-10-16T04:57:50.181Z,1006.03
2018-10-16T04:58:50.154Z,1005.96
2018-10-16T04:59:50.145Z,1006.00
2018-10-16T05:00:50.133Z,1006.00
2018-10-16T05:01:50.127Z,1006.02
2018-10-16T05:02:50.126Z,1006.02
2018-10-16T05:03:50.099Z,1006.02
2018-10-16T05:04:50.101Z,1006.01
2018-10-16T05:05:50.077Z,1006.00
2018-10-16T05:06:50.080Z,1006.04
2018-10-16T05:07:50.066Z,1006.07
2018-10-16T05:08:50.044Z,1006.03
2018-10-16T05:09:50.037Z,1006.08
2018-10-16T05:10:50.023Z,1006.05
2018-10-16T05:11:50.010Z,1006.06
2018-10-16T05:12:50.013Z,1006.07
2018-10-16T05:13:49.989Z,1006.04
2018-10-16T05:14:49.978Z,1006.11
2018-10-16T05:15:49.991Z,1006.11
2018-10-16T05:16:50.002Z,1006.10
2018-10-16T05:17:49.955Z,1006.11
2018-10-16T05:18:49.943Z,1006.11
2018-10-16T05:19:49.922Z,1006.10
2018-10-16T05:20:49.916Z,1006.14
2018-10-16T05:21:49.900Z,1006.16
2018-10-16T05:22:49.896Z,1006.14
2018-10-16T05:23:49.883Z,1006.16
2018-10-16T05:24:49.868Z,1006.18
2018-10-16T05:25:49.862Z,1006.18
2018-10-16T05:26:49.844Z,1006.17
2018-10-16T05:27:49.843Z,1006.22
2018-10-16T05:28:49.825Z,1006.21
2018-10-16T05:29:49.812Z,1006.17
2018-10-16T05:30:49.817Z,1006.19
2018-10-16T05:31:49.788Z,1006.19
2018-10-16T05:32:49.789Z,1006.19
2018-10-16T05:33:49.771Z,1006.16
2018-10-16T05:34:49.757Z,1006.17
2018-10-16T05:35:49.751Z,1006.15
2018-10-16T05:36:49.738Z,1006.15
2018-10-16T05:37:49.737Z,1006.20
2018-10-16T05:38:49.713Z,1006.23
2018-10-16T05:39:49.707Z,1006.26
2018-10-16T05:40:49.699Z,1006.33
2018-10-16T05:41:49.682Z,1006.32
2018-10-16T05:42:49.691Z,1006.32
2018-10-16T05:43:49.662Z,1006.34
2018-10-16T05:44:49.652Z,1006.36
2018-10-16T05:45:49.646Z,1006.40
2018-10-16T05:46:49.632Z,1006.41
2018-10-16T05:47:49.627Z,1006.38
2018-10-16T05:48:49.605Z,1006.37
2018-10-16T05:49:49.592Z,1006.41
2018-10-16T05:50:49.581Z,1006.42
2018-10-16T05:51:49.572Z,1006.37
2018-10-16T05:52:49.589Z,1006.40
2018-10-16T05:53:49.557Z,1006.39
2018-10-16T05:54:49.537Z,1006.41
2018-10-16T05:55:49.529Z,1006.39
2018-10-16T05:56:49.519Z,1006.36
2018-10-16T05:57:49.503Z,1006.43
2018-10-16T05:58:49.524Z,1006.43
2018-10-16T05:59:49.485Z,1006.44
2018-10-16T06:00:49.473Z,1006.48
2018-10-16T06:01:49.469Z,1006.48
2018-10-16T06:02:49.450Z,1006.50
2018-10-16T06:03:49.453Z,1006.54
2018-10-16T06:04:49.432Z,1006.50
2018-10-16T06:05:49.467Z,1006.56
2018-10-16T06:06:49.410Z,1006.59
2018-10-16T06:07:49.396Z,1006.58
2018-10-16T06:08:49.400Z,1006.55
2018-10-16T06:09:49.377Z,1006.57
2018-10-16T06:10:49.381Z,1006.57
2018-10-16T06:11:49.360Z,1006.61
2018-10-16T06:12:49.348Z,1006.62
2018-10-16T06:13:49.355Z,1006.61
2018-10-16T06:14:49.321Z,1006.62
2018-10-16T06:15:49.312Z,1006.62
2018-10-16T06:16:49.316Z,1006.69
2018-10-16T06:17:49.299Z,1006.70
2018-10-16T06:18:49.303Z,1006.72
2018-10-16T06:19:49.267Z,1006.74
2018-10-16T06:20:49.260Z,1006.72
2018-10-16T06:21:49.245Z,1006.71
2018-10-16T06:22:49.233Z,1006.72
2018-10-16T06:23:49.235Z,1006.77
2018-10-16T06:24:49.223Z,1006.75
2018-10-16T06:25:49.219Z,1006.77
2018-10-16T06:26:49.191Z,1006.77
2018-10-16T06:27:49.235Z,1006.77
2018-10-16T06:28:49.179Z,1006.75
2018-10-16T06:29:49.157Z,1006.79
2018-10-16T06:30:49.148Z,1006.80
2018-10-16T06:31:49.136Z,1006.81
2018-10-16T06:32:49.128Z,1006.79
2018-10-16T06:33:49.132Z,1006.85
2018-10-16T06:34:49.104Z,1006.83
2018-10-16T06:35:49.092Z,1006.86
2018-10-16T06:36:49.079Z,1006.87
2018-10-16T06:37:49.073Z,1006.89
2018-10-16T06:38:49.072Z,1006.87
2018-10-16T06:39:49.095Z,1006.88
2018-10-16T06:40:49.163Z,1006.89
2018-10-16T06:41:49.031Z,1006.94
2018-10-16T06:42:49.014Z,1006.93
2018-10-16T06:43:49.073Z,1006.90
2018-10-16T06:44:49.006Z,1006.92
2018-10-16T06:45:48.996Z,1006.93
2018-10-16T06:46:48.969Z,1006.94
2018-10-16T06:47:49.045Z,1006.93
2018-10-16T06:48:49.311Z,1007.00
2018-10-16T06:49:48.938Z,1006.96
2018-10-16T06:50:48.927Z,1006.99
2018-10-16T06:51:48.919Z,1006.96
2018-10-16T06:52:48.903Z,1007.00
2018-10-16T06:53:48.904Z,1006.96
2018-10-16T06:54:48.987Z,1006.96
2018-10-16T06:55:48.872Z,1007.00
2018-10-16T06:56:48.864Z,1006.95
2018-10-16T06:57:48.863Z,1006.96
2018-10-16T06:58:48.853Z,1006.97
2018-10-16T06:59:48.837Z,1006.97
2018-10-16T07:00:48.815Z,1006.98
2018-10-16T07:01:48.807Z,1006.98
2018-10-16T07:02:48.801Z,1006.98
2018-10-16T07:03:48.792Z,1006.95
2018-10-16T07:04:48.786Z,1006.97
2018-10-16T07:05:48.764Z,1007.01
2018-10-16T07:06:48.836Z,1007.02
2018-10-16T07:07:48.751Z,1007.03
2018-10-16T07:08:48.743Z,1007.05
2018-10-16T07:09:48.732Z,1007.05
2018-10-16T07:10:48.711Z,1007.05
2018-10-16T07:11:48.698Z,1007.05
2018-10-16T07:12:48.687Z,1007.05
2018-10-16T07:13:48.688Z,1007.10
2018-10-16T07:14:48.770Z,1007.12
2018-10-16T07:18:06.347Z,1007.13
2018-10-16T07:19:06.344Z,1007.20
2018-10-16T07:20:06.348Z,1007.16
2018-10-16T07:22:15.031Z,1007.17
2018-10-16T07:23:15.068Z,1007.16
2018-10-16T07:24:15.008Z,1007.18
2018-10-16T07:25:15.007Z,1007.22
2018-10-16T07:26:14.986Z,1007.17
2018-10-16T07:27:14.979Z,1007.23
2018-10-16T07:28:14.973Z,1007.23
2018-10-16T07:29:14.953Z,1007.20
2018-10-16T07:30:15.145Z,1007.21
2018-10-16T07:31:14.932Z,1007.22
2018-10-16T07:32:14.944Z,1007.24
2018-10-16T07:33:14.916Z,1007.21
2018-10-16T07:34:14.925Z,1007.24
2018-10-16T07:35:14.921Z,1007.27
2018-10-16T07:36:14.875Z,1007.29
2018-10-16T07:37:14.875Z,1007.26
2018-10-16T07:38:15.033Z,1007.29
2018-10-16T07:39:14.853Z,1007.27
2018-10-16T07:40:14.859Z,1007.28
2018-10-16T07:41:14.823Z,1007.32
2018-10-16T07:42:14.821Z,1007.28
2018-10-16T07:43:14.801Z,1007.30
2018-10-16T07:44:14.790Z,1007.30
2018-10-16T07:45:14.795Z,1007.32
2018-10-16T07:46:14.781Z,1007.28
2018-10-16T07:47:14.760Z,1007.30
2018-10-16T07:48:14.770Z,1007.35
2018-10-16T07:49:14.735Z,1007.35
2018-10-16T07:50:14.817Z,1007.34
2018-10-16T07:52:38.682Z,1007.35
2018-10-16T07:53:23.428Z,1007.39
2018-10-16T07:54:23.415Z,1007.34
2018-10-16T07:55:23.418Z,1007.34
2018-10-16T07:56:23.388Z,1007.32
2018-10-16T07:57:23.479Z,1007.33
2018-10-16T07:58:23.370Z,1007.36
2018-10-16T07:59:23.369Z,1007.38
2018-10-16T08:00:23.372Z,1007.37
2018-10-16T08:01:23.341Z,1007.37
2018-10-16T08:02:23.321Z,1007.38
2018-10-16T08:03:23.330Z,1007.40
2018-10-16T08:04:23.306Z,1007.34
2018-10-16T08:05:23.309Z,1007.35
2018-10-16T08:06:23.274Z,1007.33
2018-10-16T08:07:23.262Z,1007.34
2018-10-16T08:08:23.255Z,1007.34
2018-10-16T08:09:23.251Z,1007.37
2018-10-16T08:10:23.243Z,1007.36
2018-10-16T08:11:23.292Z,1007.32
2018-10-16T08:12:23.210Z,1007.36
2018-10-16T08:13:23.201Z,1007.37
2018-10-16T08:14:23.203Z,1007.41
2018-10-16T08:15:23.192Z,1007.43
2018-10-16T08:16:23.184Z,1007.36
2018-10-16T08:17:23.271Z,1007.38
2018-10-16T08:18:23.140Z,1007.33
2018-10-16T08:19:23.132Z,1007.29
2018-10-16T08:20:23.130Z,1007.32
2018-10-16T08:21:23.108Z,1007.29
2018-10-16T08:22:23.097Z,1007.30
2018-10-16T08:23:23.085Z,1007.31
2018-10-16T08:24:23.073Z,1007.30
2018-10-16T08:25:23.073Z,1007.31
2018-10-16T08:26:23.050Z,1007.32
2018-10-16T08:27:23.045Z,1007.29
2018-10-16T08:28:23.035Z,1007.31
2018-10-16T08:29:23.019Z,1007.34
2018-10-16T08:30:23.037Z,1007.31
2018-10-16T08:31:22.996Z,1007.35
2018-10-16T08:32:22.992Z,1007.32
2018-10-16T08:33:22.982Z,1007.30
2018-10-16T08:34:22.970Z,1007.34
2018-10-16T08:35:22.976Z,1007.34
2018-10-16T08:36:23.072Z,1007.39
2018-10-16T08:37:23.054Z,1007.35
2018-10-16T08:38:22.928Z,1007.40
2018-10-16T08:39:22.909Z,1007.41
2018-10-16T08:40:22.896Z,1007.37
2018-10-16T08:41:22.902Z,1007.39
2018-10-16T08:42:22.874Z,1007.42
2018-10-16T08:43:22.864Z,1007.35
2018-10-16T08:44:22.856Z,1007.36
2018-10-16T08:45:22.853Z,1007.37
2018-10-16T08:46:22.849Z,1007.42
2018-10-16T08:47:22.857Z,1007.44
2018-10-16T08:48:22.808Z,1007.41
2018-10-16T08:49:22.797Z,1007.44
2018-10-16T08:50:22.799Z,1007.45
2018-10-16T08:51:22.789Z,1007.41
2018-10-16T08:52:22.767Z,1007.43
2018-10-16T08:53:22.756Z,1007.42
2018-10-16T08:54:22.742Z,1007.36
2018-10-16T08:55:22.732Z,1007.34
2018-10-16T08:56:22.738Z,1007.38
2018-10-16T08:57:22.719Z,1007.39
2018-10-16T08:58:22.705Z,1007.41
2018-10-16T08:59:22.688Z,1007.37
2018-10-16T09:00:22.684Z,1007.46
2018-10-16T09:01:22.682Z,1007.47
2018-10-16T09:02:22.655Z,1007.51
2018-10-16T09:03:22.658Z,1007.46
2018-10-16T09:04:22.637Z,1007.51
2018-10-16T09:05:22.621Z,1007.47
2018-10-16T09:06:22.623Z,1007.43
2018-10-16T09:07:22.598Z,1007.45
2018-10-16T09:08:22.592Z,1007.44
2018-10-16T09:09:22.583Z,1007.50
2018-10-16T09:10:22.567Z,1007.46
2018-10-16T09:11:22.567Z,1007.44
2018-10-16T09:12:22.542Z,1007.45
2018-10-16T09:13:22.533Z,1007.49
2018-10-16T09:14:22.560Z,1007.48
2018-10-16T09:15:22.508Z,1007.55
2018-10-16T09:16:22.510Z,1007.51
2018-10-16T09:17:22.487Z,1007.49
2018-10-16T09:18:22.478Z,1007.54
2018-10-16T09:19:22.465Z,1007.50
2018-10-16T09:20:22.460Z,1007.49
2018-10-16T09:21:22.466Z,1007.48
2018-10-16T09:22:22.433Z,1007.46
2018-10-16T09:23:22.420Z,1007.47
2018-10-16T09:24:22.435Z,1007.49
2018-10-16T09:25:22.397Z,1007.48
2018-10-16T09:26:22.396Z,1007.48
2018-10-16T09:27:22.387Z,1007.47
2018-10-16T09:28:22.363Z,1007.42
2018-10-16T09:29:22.354Z,1007.44
2018-10-16T09:30:22.365Z,1007.40
2018-10-16T09:31:22.330Z,1007.45
2018-10-16T09:32:22.332Z,1007.42
2018-10-16T09:33:22.313Z,1007.40
2018-10-16T09:34:22.297Z,1007.39
2018-10-16T09:35:22.287Z,1007.47
2018-10-16T09:36:22.279Z,1007.43
2018-10-16T09:37:22.312Z,1007.44
2018-10-16T09:38:22.257Z,1007.39
2018-10-16T09:39:22.247Z,1007.38
2018-10-16T09:40:22.231Z,1007.38
2018-10-16T09:41:22.221Z,1007.38
2018-10-16T09:42:22.222Z,1007.42
2018-10-16T09:43:22.200Z,1007.36
2018-10-16T09:44:22.189Z,1007.37
2018-10-16T09:45:22.175Z,1007.32
2018-10-16T09:46:22.174Z,1007.34
2018-10-16T09:47:22.166Z,1007.36
2018-10-16T09:48:22.147Z,1007.38
2018-10-16T09:49:22.163Z,1007.39
2018-10-16T09:50:22.121Z,1007.43
2018-10-16T09:51:22.108Z,1007.40
2018-10-16T09:52:22.109Z,1007.40
2018-10-16T09:53:22.087Z,1007.39
2018-10-16T09:54:22.076Z,1007.44
2018-10-16T09:55:22.064Z,1007.36
2018-10-16T09:56:22.052Z,1007.39
2018-10-16T09:57:22.058Z,1007.38
2018-10-16T09:58:22.037Z,1007.38
2018-10-16T09:59:22.019Z,1007.37
2018-10-16T10:00:22.013Z,1007.43
2018-10-16T10:01:22.002Z,1007.43
2018-10-16T10:02:22.006Z,1007.42
2018-10-16T10:03:21.976Z,1007.41
2018-10-16T10:04:21.963Z,1007.41
2018-10-16T10:05:21.952Z,1007.44
2018-10-16T10:06:21.946Z,1007.43
2018-10-16T10:07:21.938Z,1007.43
2018-10-16T10:08:21.931Z,1007.43
2018-10-16T10:09:21.917Z,1007.39
2018-10-16T10:10:21.915Z,1007.41
2018-10-16T10:11:21.890Z,1007.40
2018-10-16T10:12:21.879Z,1007.41
2018-10-16T10:13:21.876Z,1007.41
2018-10-16T10:14:21.864Z,1007.37
2018-10-16T10:15:21.842Z,1007.44
2018-10-16T10:16:21.838Z,1007.38
2018-10-16T10:17:21.821Z,1007.40
2018-10-16T10:18:21.819Z,1007.37
2018-10-16T10:19:21.800Z,1007.36
2018-10-16T10:20:21.792Z,1007.38
2018-10-16T10:21:21.780Z,1007.40
2018-10-16T10:22:21.767Z,1007.36
2018-10-16T10:23:21.848Z,1007.33
2018-10-16T10:24:21.747Z,1007.29
2018-10-16T10:25:21.784Z,1007.29
2018-10-16T10:26:21.726Z,1007.30
2018-10-16T10:27:21.745Z,1007.31
2018-10-16T10:28:21.708Z,1007.21
2018-10-16T10:29:21.695Z,1007.23
2018-10-16T10:30:21.676Z,1007.17
2018-10-16T10:31:21.667Z,1007.21
2018-10-16T10:32:21.653Z,1007.20
2018-10-16T10:33:21.672Z,1007.18
2018-10-16T10:34:21.630Z,1007.19
2018-10-16T10:35:21.627Z,1007.19
2018-10-16T10:36:21.608Z,1007.19
2018-10-16T10:37:21.598Z,1007.21
2018-10-16T10:38:21.599Z,1007.23
2018-10-16T10:39:21.574Z,1007.14
2018-10-16T10:40:21.564Z,1007.14
2018-10-16T10:41:21.554Z,1007.16
2018-10-16T10:42:21.619Z,1007.12
2018-10-16T10:43:21.542Z,1007.14
2018-10-16T10:44:21.521Z,1007.15
2018-10-16T10:45:21.548Z,1007.15
2018-10-16T10:46:21.502Z,1007.15
2018-10-16T10:47:21.491Z,1007.15
2018-10-16T10:48:21.487Z,1007.14
2018-10-16T10:49:21.465Z,1007.15
2018-10-16T10:50:21.669Z,1007.15
2018-10-16T10:51:21.843Z,1007.13
2018-10-16T10:52:21.432Z,1007.10
2018-10-16T10:53:21.438Z,1007.13
2018-10-16T10:54:21.415Z,1007.12
2018-10-16T10:55:21.399Z,1007.11
2018-10-16T10:56:21.386Z,1007.09
2018-10-16T10:57:21.376Z,1007.09
2018-10-16T10:58:21.374Z,1007.09
2018-10-16T10:59:21.352Z,1007.15
2018-10-16T11:00:21.340Z,1007.15
2018-10-16T11:01:21.335Z,1007.12
2018-10-16T11:02:21.353Z,1007.11
2018-10-16T11:03:21.506Z,1007.13
2018-10-16T11:04:21.303Z,1007.12
2018-10-16T11:05:21.285Z,1007.09
2018-10-16T11:06:21.275Z,1007.09
2018-10-16T11:07:21.269Z,1007.12
2018-10-16T11:08:22.572Z,1007.06
2018-10-16T11:09:21.240Z,1007.06
2018-10-16T11:10:21.230Z,1007.02
2018-10-16T11:11:21.220Z,1007.00
2018-10-16T11:12:21.212Z,1006.96
2018-10-16T11:13:21.210Z,1006.96
2018-10-16T11:14:21.191Z,1006.97
2018-10-16T11:15:21.183Z,1006.97
2018-10-16T11:16:21.164Z,1006.97
2018-10-16T11:17:21.153Z,1006.98
2018-10-16T11:18:21.161Z,1006.96
2018-10-16T11:19:21.255Z,1006.97
2018-10-16T11:20:21.121Z,1006.98
2018-10-16T11:21:21.109Z,1006.97
2018-10-16T11:22:21.094Z,1006.95
2018-10-16T11:23:21.096Z,1006.98
2018-10-16T11:24:21.074Z,1007.01
2018-10-16T11:25:21.068Z,1006.96
2018-10-16T11:26:21.052Z,1006.98
2018-10-16T11:27:21.041Z,1006.96
2018-10-16T11:28:21.041Z,1006.98
2018-10-16T11:29:21.024Z,1006.96
2018-10-16T11:30:21.080Z,1006.98
2018-10-16T11:31:20.996Z,1006.95
2018-10-16T11:32:20.985Z,1006.98
2018-10-16T11:33:20.995Z,1006.92
2018-10-16T11:34:20.963Z,1006.95
2018-10-16T11:35:20.966Z,1006.95
2018-10-16T11:36:20.949Z,1006.99
2018-10-16T11:37:20.931Z,1006.96
2018-10-16T11:38:20.935Z,1006.99
2018-10-16T11:39:20.922Z,1006.97
2018-10-16T11:40:20.895Z,1006.97
2018-10-16T11:41:20.884Z,1006.95
2018-10-16T11:42:20.887Z,1006.98
2018-10-16T11:43:20.868Z,1006.96
2018-10-16T11:44:20.878Z,1006.92
2018-10-16T11:45:20.844Z,1006.94
2018-10-16T11:46:20.830Z,1006.88
2018-10-16T11:47:20.822Z,1006.89
2018-10-16T11:48:20.813Z,1006.89
2018-10-16T11:49:20.808Z,1006.92
2018-10-16T11:50:20.835Z,1006.91
2018-10-16T11:51:20.773Z,1006.91
2018-10-16T11:52:20.836Z,1006.91
2018-10-16T11:53:20.754Z,1006.92
2018-10-16T11:54:20.757Z,1006.89
2018-10-16T11:55:20.734Z,1006.89
2018-10-16T11:56:20.718Z,1006.88
2018-10-16T11:57:20.707Z,1006.91
2018-10-16T11:58:20.707Z,1006.96
2018-10-16T11:59:20.907Z,1006.87
2018-10-16T12:00:20.674Z,1006.88
2018-10-16T12:01:20.677Z,1006.88
2018-10-16T12:02:20.693Z,1006.87
2018-10-16T12:03:20.643Z,1006.90
2018-10-16T12:04:20.648Z,1006.92
2018-10-16T12:05:20.622Z,1006.87
2018-10-16T12:06:20.610Z,1006.86
2018-10-16T12:07:20.600Z,1006.84
2018-10-16T12:08:20.586Z,1006.90
2018-10-16T12:09:20.589Z,1006.90
2018-10-16T12:10:20.572Z,1006.85
2018-10-16T12:11:20.561Z,1006.87
2018-10-16T12:12:20.542Z,1006.89
2018-10-16T12:13:20.532Z,1006.82
2018-10-16T12:14:20.534Z,1006.85
2018-10-16T12:15:20.510Z,1006.78